Time;durP1;ratioP1;P1;durP2;ratioP2;P2;SDS_P1;SDS_P2;PMS_P1;PMS_P2;Temp;Humidity;BMP_temperature;BMP_pressure;BME280_temperature;BME280_humidity;BME280_pressure;Samples;Min_cycle;Max_cycle;Signal;HPM_P1;HPM_P2
2022/10/23 00:01:41;;;;;;;23.60;12.70;;;30.30;90.70;;;;;;5024709;28;20041;-57
2022/10/23 00:04:12;;;;;;;23.45;12.95;;;30.30;90.80;;;;;;5024602;28;20033;-56
2022/10/23 00:06:39;;;;;;;21.42;10.80;;;30.30;90.80;;;;;;5024453;28;20034;-58
2022/10/23 00:09:07;;;;;;;21.77;10.25;;;30.30;90.70;;;;;;5025019;28;20306;-61
2022/10/23 00:11:35;;;;;;;18.33;10.43;;;30.30;90.80;;;;;;5024508;28;20022;-57
2022/10/23 00:14:04;;;;;;;18.10;10.07;;;30.30;90.80;;;;;;5025507;28;20030;-58
2022/10/23 00:16:32;;;;;;;17.27;9.65;;;30.20;90.80;;;;;;5024450;28;20202;-57
2022/10/23 00:18:58;;;;;;;17.63;9.60;;;30.20;90.80;;;;;;5024135;28;20083;-57
2022/10/23 00:21:25;;;;;;;15.63;8.23;;;30.20;90.90;;;;;;5024426;28;20052;-58
2022/10/23 00:23:52;;;;;;;18.88;8.52;;;30.20;90.90;;;;;;5024329;28;20050;-56
2022/10/23 00:26:19;;;;;;;14.60;7.45;;;30.20;90.80;;;;;;5023849;28;20045;-56
2022/10/23 00:28:49;;;;;;;12.73;7.40;;;30.10;90.70;;;;;;5024670;28;20096;-54
2022/10/23 00:31:17;;;;;;;14.75;7.47;;;30.10;90.70;;;;;;5024110;28;20340;-56
2022/10/23 00:33:44;;;;;;;13.23;6.88;;;30.10;90.70;;;;;;5024706;28;20309;-57
2022/10/23 00:36:13;;;;;;;11.57;6.53;;;30.10;90.70;;;;;;5024184;28;20080;-58
2022/10/23 00:38:40;;;;;;;12.60;6.63;;;30.10;90.80;;;;;;5024186;28;20030;-58
2022/10/23 00:41:08;;;;;;;11.93;6.20;;;30.10;90.50;;;;;;5024084;28;20085;-61
2022/10/23 00:43:53;;;;;;;15.25;5.63;;;30.10;90.50;;;;;;5023276;28;20045;-61
2022/10/23 00:46:20;;;;;;;8.93;5.05;;;30.10;90.50;;;;;;5023920;28;20098;-61
2022/10/23 00:48:46;;;;;;;7.97;5.22;;;30.10;90.50;;;;;;5024085;28;20121;-61
2022/10/23 00:51:13;;;;;;;10.07;5.18;;;30.00;90.40;;;;;;5024241;28;20032;-60
2022/10/23 00:53:43;;;;;;;13.15;5.68;;;30.00;90.50;;;;;;5024479;28;20294;-58
2022/10/23 00:56:10;;;;;;;22.38;7.15;;;30.00;90.50;;;;;;5026656;28;20144;-59
2022/10/23 00:58:37;;;;;;;26.30;5.50;;;30.00;90.50;;;;;;5027412;28;20092;-57
2022/10/23 01:01:17;;;;;;;8.70;4.40;;;30.00;90.50;;;;;;5027605;28;20029;-56
2022/10/23 01:03:44;;;;;;;18.48;5.40;;;30.00;90.40;;;;;;5027559;28;20056;-54
2022/10/23 01:06:25;;;;;;;9.98;4.63;;;30.00;90.50;;;;;;5027099;28;20021;-54
2022/10/23 01:08:54;;;;;;;10.65;5.50;;;29.90;90.50;;;;;;5027212;28;20034;-52
2022/10/23 01:11:51;;;;;;;11.05;5.10;;;29.90;90.40;;;;;;5027193;28;20041;-53
2022/10/23 01:14:35;;;;;;;9.60;5.32;;;29.90;90.60;;;;;;5027303;28;20030;-57
2022/10/23 01:17:28;;;;;;;6.85;5.15;;;29.90;90.60;;;;;;5026887;28;20056;-60
2022/10/23 01:20:09;;;;;;;16.63;5.95;;;29.90;90.70;;;;;;4985900;28;20051;-61
2022/10/23 01:23:10;;;;;;;18.03;5.40;;;29.80;90.60;;;;;;4986018;28;20327;-60
2022/10/23 01:26:14;;;;;;;12.30;4.65;;;29.80;90.60;;;;;;5025827;28;20123;-54
2022/10/23 01:28:43;;;;;;;18.02;5.20;;;29.80;90.50;;;;;;5026992;28;20050;-58
2022/10/23 01:31:20;;;;;;;8.05;5.10;;;29.80;90.60;;;;;;5026920;28;20040;-53
2022/10/23 01:33:51;;;;;;;9.25;4.85;;;29.80;90.50;;;;;;5027219;28;20026;-51
2022/10/23 01:36:25;;;;;;;8.30;4.47;;;29.80;90.50;;;;;;5026771;28;20030;-57
2022/10/23 01:38:55;;;;;;;8.07;4.05;;;29.80;90.50;;;;;;5027047;28;20097;-55
2022/10/23 01:41:58;;;;;;;15.77;4.60;;;29.80;90.50;;;;;;5026769;28;20029;-56
2022/10/23 01:44:37;;;;;;;7.68;4.00;;;29.80;90.40;;;;;;5026747;28;20029;-57
2022/10/23 01:47:07;;;;;;;6.25;3.78;;;29.80;90.40;;;;;;5026397;28;20333;-57
2022/10/23 01:49:38;;;;;;;6.88;4.00;;;29.70;90.30;;;;;;5026768;28;20046;-58
2022/10/23 01:52:09;;;;;;;7.55;4.00;;;29.70;90.20;;;;;;5026299;28;20034;-55
2022/10/23 01:54:41;;;;;;;5.13;3.85;;;29.70;90.20;;;;;;5026764;28;20053;-58
2022/10/23 01:57:12;;;;;;;5.50;4.18;;;29.70;90.10;;;;;;5026036;28;20033;-56
2022/10/23 01:59:47;;;;;;;9.45;4.28;;;29.70;90.10;;;;;;5026579;28;20030;-59
2022/10/23 02:02:16;;;;;;;8.27;4.28;;;29.70;90.20;;;;;;5026231;28;20025;-56
2022/10/23 02:04:54;;;;;;;6.38;4.03;;;29.70;90.10;;;;;;5026769;28;20053;-56
2022/10/23 02:07:21;;;;;;;6.28;3.88;;;29.60;90.10;;;;;;5023416;28;20097;-55
2022/10/23 02:09:47;;;;;;;20.75;4.95;;;29.70;90.10;;;;;;5026198;28;20033;-64
2022/10/23 02:12:41;;;;;;;19.73;4.88;;;29.60;90.10;;;;;;5025956;28;20089;-57
2022/10/23 02:15:28;;;;;;;7.88;4.00;;;29.60;90.10;;;;;;5025824;28;20072;-56
2022/10/23 02:18:08;;;;;;;8.98;4.65;;;29.60;90.10;;;;;;5018838;28;20049;-55
2022/10/23 02:20:52;;;;;;;9.63;4.70;;;29.60;90.00;;;;;;5024486;28;20246;-60
2022/10/23 02:23:21;;;;;;;5.68;4.40;;;29.60;90.10;;;;;;5024158;28;20046;-58
2022/10/23 02:26:00;;;;;;;8.55;4.28;;;29.60;90.10;;;;;;5026141;28;20026;-56
2022/10/23 02:28:32;;;;;;;8.75;4.10;;;29.50;90.10;;;;;;5025640;28;20052;-57
2022/10/23 02:31:01;;;;;;;10.55;4.40;;;29.50;90.10;;;;;;5025729;28;20026;-57
2022/10/23 02:33:30;;;;;;;18.15;4.50;;;29.50;90.10;;;;;;5025845;28;20080;-57
2022/10/23 02:35:57;;;;;;;6.03;4.28;;;29.50;90.10;;;;;;5025404;28;20029;-61
2022/10/23 02:38:36;;;;;;;17.05;4.22;;;29.50;90.00;;;;;;5025596;28;20040;-61
2022/10/23 02:41:13;;;;;;;7.20;4.68;;;29.50;89.90;;;;;;5025520;28;20029;-62
2022/10/23 02:44:20;;;;;;;6.85;4.50;;;29.50;90.00;;;;;;5025692;28;20040;-62
2022/10/23 02:46:59;;;;;;;4.80;4.20;;;29.50;90.00;;;;;;5024139;28;20042;-56
2022/10/23 02:50:07;;;;;;;8.60;4.88;;;29.50;90.10;;;;;;5025794;28;20041;-57
2022/10/23 02:52:43;;;;;;;11.75;4.80;;;29.40;90.20;;;;;;4984183;28;20219;-61
2022/10/23 02:55:14;;;;;;;11.88;4.53;;;29.50;90.00;;;;;;4984457;28;20053;-61
2022/10/23 02:58:09;;;;;;;42.30;6.18;;;29.40;90.10;;;;;;5007559;28;20050;-59
2022/10/23 03:00:38;;;;;;;7.72;4.40;;;29.40;90.10;;;;;;5025034;28;20052;-62
2022/10/23 03:03:32;;;;;;;8.52;4.50;;;29.40;90.10;;;;;;5025009;28;20084;-56
2022/10/23 03:06:00;;;;;;;7.03;4.63;;;29.40;90.10;;;;;;5024944;28;20093;-55
2022/10/23 03:08:27;;;;;;;8.52;3.95;;;29.40;90.10;;;;;;5024927;28;20030;-59
2022/10/23 03:10:54;;;;;;;5.00;4.47;;;29.40;90.10;;;;;;5024915;28;20029;-61
2022/10/23 03:13:22;;;;;;;8.85;5.40;;;29.40;90.10;;;;;;5024993;28;20038;-58
2022/10/23 03:15:48;;;;;;;10.75;6.55;;;29.40;90.10;;;;;;5024624;28;20014;-56
2022/10/23 03:18:15;;;;;;;11.90;7.53;;;29.40;90.10;;;;;;5024583;28;20076;-58
2022/10/23 03:20:41;;;;;;;13.80;7.50;;;29.40;90.10;;;;;;5024712;28;20021;-60
2022/10/23 03:23:12;;;;;;;9.00;6.78;;;29.40;90.10;;;;;;5024813;28;20032;-57
2022/10/23 03:25:41;;;;;;;8.52;5.55;;;29.30;90.00;;;;;;5024671;28;20030;-56
2022/10/23 03:28:08;;;;;;;25.90;6.55;;;29.30;90.00;;;;;;5024470;28;20033;-57
2022/10/23 03:30:34;;;;;;;11.65;5.47;;;29.30;90.00;;;;;;5024242;28;20026;-53
2022/10/23 03:33:01;;;;;;;15.77;5.50;;;29.30;90.00;;;;;;5024637;28;20084;-57
2022/10/23 03:35:28;;;;;;;11.32;5.55;;;29.30;90.00;;;;;;5024485;28;20017;-57
2022/10/23 03:37:54;;;;;;;9.15;6.00;;;29.30;90.00;;;;;;5024278;28;20037;-58
2022/10/23 03:40:21;;;;;;;12.02;6.22;;;29.30;90.10;;;;;;5024480;28;20053;-55
2022/10/23 03:42:47;;;;;;;7.95;6.40;;;29.30;90.20;;;;;;5024281;28;20210;-58
2022/10/23 03:45:14;;;;;;;9.40;5.80;;;29.20;90.20;;;;;;5024277;28;20025;-57
2022/10/23 03:47:41;;;;;;;7.68;4.90;;;29.20;90.30;;;;;;5024392;28;20210;-54
2022/10/23 03:50:09;;;;;;;8.05;5.40;;;29.20;90.30;;;;;;5024268;28;20092;-54
2022/10/23 03:52:35;;;;;;;9.75;4.72;;;29.20;90.20;;;;;;5024165;28;20021;-60
2022/10/23 03:55:03;;;;;;;18.77;5.40;;;29.20;90.20;;;;;;5024025;28;20041;-56
2022/10/23 03:57:29;;;;;;;12.70;5.40;;;29.10;90.20;;;;;;5022935;28;20188;-54
2022/10/23 03:59:56;;;;;;;10.35;5.13;;;29.10;90.20;;;;;;5024130;28;20057;-54
2022/10/23 04:02:23;;;;;;;10.52;4.68;;;29.10;90.30;;;;;;5023745;28;20230;-54
2022/10/23 04:04:49;;;;;;;14.60;5.13;;;29.10;90.20;;;;;;5024107;28;20053;-53
2022/10/23 04:07:16;;;;;;;8.35;4.88;;;29.10;90.20;;;;;;5023941;28;20033;-54
2022/10/23 04:09:42;;;;;;;22.35;5.10;;;29.10;90.20;;;;;;5024407;28;20352;-58
2022/10/23 04:12:09;;;;;;;13.35;5.13;;;29.10;90.10;;;;;;5024056;28;20093;-57
2022/10/23 04:14:35;;;;;;;15.48;5.25;;;29.10;90.10;;;;;;5024330;28;20045;-57
2022/10/23 04:17:02;;;;;;;9.40;5.30;;;29.10;90.30;;;;;;5023835;28;20311;-55
2022/10/23 04:19:29;;;;;;;9.38;5.00;;;29.10;90.30;;;;;;5024353;28;20061;-56
2022/10/23 04:21:56;;;;;;;9.05;4.72;;;29.10;90.20;;;;;;5023924;28;20304;-63
2022/10/23 04:24:24;;;;;;;9.73;4.60;;;29.00;90.30;;;;;;5024228;28;20029;-61
2022/10/23 04:26:51;;;;;;;6.68;4.50;;;29.00;90.30;;;;;;5023732;28;20341;-62
2022/10/23 04:29:21;;;;;;;8.23;4.57;;;29.00;90.30;;;;;;5024322;28;20093;-61
2022/10/23 04:31:48;;;;;;;12.90;4.80;;;29.00;90.30;;;;;;5027578;28;20030;-62
2022/10/23 04:34:14;;;;;;;6.65;4.80;;;29.00;90.40;;;;;;5028116;28;20310;-56
2022/10/23 04:36:41;;;;;;;6.50;4.70;;;29.00;90.40;;;;;;5027805;28;20298;-55
2022/10/23 04:39:08;;;;;;;11.63;4.38;;;29.00;90.50;;;;;;5027781;28;20049;-58
2022/10/23 04:41:35;;;;;;;9.65;4.93;;;29.00;90.60;;;;;;5027577;28;20018;-59
2022/10/23 04:44:02;;;;;;;8.60;4.68;;;29.00;90.70;;;;;;5027819;28;20029;-56
2022/10/23 04:46:28;;;;;;;9.07;4.97;;;29.00;90.70;;;;;;5027259;28;20033;-58
2022/10/23 04:48:55;;;;;;;8.40;4.60;;;29.00;90.70;;;;;;5028033;28;20018;-54
2022/10/23 04:51:21;;;;;;;8.70;4.85;;;29.00;90.70;;;;;;5027385;28;20030;-53
2022/10/23 04:53:48;;;;;;;7.85;4.28;;;29.00;90.60;;;;;;5027538;28;20033;-54
2022/10/23 04:56:15;;;;;;;6.85;4.40;;;29.00;90.60;;;;;;5027288;28;20053;-51
2022/10/23 04:58:42;;;;;;;9.25;4.43;;;29.00;90.60;;;;;;5026241;28;20021;-54
2022/10/23 05:01:12;;;;;;;6.22;3.90;;;29.00;90.60;;;;;;5027084;28;20207;-53
2022/10/23 05:03:39;;;;;;;6.38;4.00;;;29.00;90.80;;;;;;5027587;28;20045;-54
2022/10/23 05:06:06;;;;;;;4.55;3.90;;;29.00;90.60;;;;;;5027128;28;20089;-55
2022/10/23 05:08:34;;;;;;;5.13;3.80;;;29.00;90.60;;;;;;5027220;28;20037;-55
2022/10/23 05:11:01;;;;;;;6.25;3.50;;;29.10;90.60;;;;;;5027003;28;20021;-52
2022/10/23 05:13:28;;;;;;;5.18;4.00;;;29.00;90.60;;;;;;5027166;28;20022;-53
2022/10/23 05:15:58;;;;;;;4.90;3.50;;;29.00;90.60;;;;;;5026968;28;20097;-53
2022/10/23 05:18:38;;;;;;;7.82;4.00;;;29.00;90.60;;;;;;5027300;28;20034;-54
2022/10/23 05:21:24;;;;;;;5.93;3.53;;;29.00;90.60;;;;;;5026736;28;20044;-55
2022/10/23 05:23:53;;;;;;;5.47;3.92;;;29.00;90.70;;;;;;5026759;28;20033;-58
2022/10/23 05:26:21;;;;;;;4.50;4.05;;;29.00;90.80;;;;;;5026394;28;20038;-55
2022/10/23 05:28:49;;;;;;;3.67;3.30;;;29.00;90.70;;;;;;5027001;28;20049;-54
2022/10/23 05:31:17;;;;;;;5.72;3.75;;;29.00;90.70;;;;;;5026825;28;20030;-53
2022/10/23 05:33:43;;;;;;;34.58;4.50;;;29.00;90.80;;;;;;5026755;28;20022;-54
2022/10/23 05:36:13;;;;;;;5.07;3.70;;;29.00;90.80;;;;;;5026578;28;20030;-55
2022/10/23 05:38:39;;;;;;;4.30;3.80;;;28.90;90.80;;;;;;5026710;28;20026;-58
2022/10/23 05:41:06;;;;;;;4.03;3.63;;;28.90;90.80;;;;;;5026036;28;20313;-58
2022/10/23 05:43:33;;;;;;;5.10;4.00;;;28.90;90.80;;;;;;5026740;28;20042;-57
2022/10/23 05:46:02;;;;;;;7.68;3.95;;;28.90;90.80;;;;;;5026404;28;20077;-62
2022/10/23 05:48:29;;;;;;;4.25;3.50;;;28.90;90.80;;;;;;5026486;28;20060;-62
2022/10/23 05:50:56;;;;;;;8.40;3.72;;;28.90;90.80;;;;;;5026435;28;20037;-55
2022/10/23 05:53:22;;;;;;;5.63;3.70;;;28.90;90.70;;;;;;5026501;28;20049;-54
2022/10/23 05:55:49;;;;;;;4.15;3.67;;;28.90;90.80;;;;;;5026148;28;20029;-53
2022/10/23 05:58:15;;;;;;;4.75;3.28;;;28.90;90.70;;;;;;5026416;28;20041;-53
2022/10/23 06:00:42;;;;;;;7.00;4.03;;;28.90;90.70;;;;;;5026216;28;20044;-53
2022/10/23 06:03:08;;;;;;;7.70;3.92;;;28.90;90.70;;;;;;5026326;28;20038;-57
2022/10/23 06:05:35;;;;;;;6.57;3.80;;;28.90;90.70;;;;;;5026312;28;20022;-55
2022/10/23 06:08:01;;;;;;;5.40;3.60;;;28.90;90.60;;;;;;5025916;28;20229;-59
2022/10/23 06:10:28;;;;;;;5.05;3.58;;;28.90;90.70;;;;;;5025981;28;20014;-54
2022/10/23 06:12:54;;;;;;;11.57;4.15;;;28.80;90.70;;;;;;5025868;28;20068;-54
2022/10/23 06:15:21;;;;;;;6.47;3.78;;;28.90;90.60;;;;;;5025748;28;20034;-48
2022/10/23 06:17:47;;;;;;;5.55;3.65;;;28.80;90.60;;;;;;5025418;28;20036;-51
2022/10/23 06:20:14;;;;;;;6.10;3.70;;;28.80;90.60;;;;;;5031730;28;20325;-53
2022/10/23 06:22:40;;;;;;;5.45;3.42;;;28.80;90.60;;;;;;5029998;28;20092;-53
2022/10/23 06:25:07;;;;;;;6.50;3.70;;;28.80;90.60;;;;;;5025741;28;20033;-54
2022/10/23 06:27:34;;;;;;;8.75;3.50;;;28.80;90.50;;;;;;5025275;28;20053;-54
2022/10/23 06:30:01;;;;;;;4.45;3.50;;;28.80;90.50;;;;;;5025660;28;20022;-53
2022/10/23 06:32:31;;;;;;;7.57;3.55;;;28.80;90.50;;;;;;5025518;28;20306;-54
2022/10/23 06:34:57;;;;;;;5.80;3.50;;;28.80;90.50;;;;;;5025412;28;20136;-53
2022/10/23 06:37:24;;;;;;;4.82;3.42;;;28.80;90.50;;;;;;5044208;28;20245;-54
2022/10/23 06:39:50;;;;;;;7.68;3.85;;;28.80;90.50;;;;;;5045324;28;20336;-53
2022/10/23 06:42:17;;;;;;;7.45;3.22;;;28.80;90.50;;;;;;5045093;28;20025;-53
2022/10/23 06:44:43;;;;;;;4.40;3.58;;;28.80;90.60;;;;;;5037610;28;20052;-56
2022/10/23 06:47:11;;;;;;;4.57;3.13;;;28.80;90.60;;;;;;5038066;28;20021;-57
2022/10/23 06:49:38;;;;;;;8.30;3.40;;;28.80;90.60;;;;;;5045363;28;20064;-55
2022/10/23 06:52:04;;;;;;;13.52;3.92;;;28.80;90.80;;;;;;5044629;28;20060;-55
2022/10/23 06:54:31;;;;;;;18.60;5.45;;;28.80;91.10;;;;;;5044740;28;20021;-54
2022/10/23 06:56:58;;;;;;;30.60;5.13;;;28.70;91.40;;;;;;5044847;28;20272;-55
2022/10/23 06:59:24;;;;;;;11.25;4.28;;;28.70;91.70;;;;;;5045371;28;20029;-55
2022/10/23 07:01:51;;;;;;;11.43;4.78;;;28.70;91.60;;;;;;5044828;28;20021;-57
2022/10/23 07:04:17;;;;;;;10.88;4.28;;;28.60;91.70;;;;;;5045135;28;20065;-54
2022/10/23 07:06:44;;;;;;;7.70;3.70;;;28.60;91.60;;;;;;5044489;28;20024;-54
2022/10/23 07:09:10;;;;;;;6.18;3.60;;;28.50;91.60;;;;;;5045214;28;20034;-55
2022/10/23 07:11:37;;;;;;;20.10;3.50;;;28.50;91.50;;;;;;5044560;28;20325;-60
2022/10/23 07:14:03;;;;;;;6.55;3.50;;;28.50;91.40;;;;;;5044814;28;20026;-54
2022/10/23 07:16:30;;;;;;;5.00;3.47;;;28.50;91.40;;;;;;5044564;28;20033;-56
2022/10/23 07:19:00;;;;;;;8.27;3.20;;;28.50;91.40;;;;;;5044652;28;20033;-52
2022/10/23 07:21:28;;;;;;;6.55;3.72;;;28.40;91.40;;;;;;5044398;28;20052;-54
2022/10/23 07:23:56;;;;;;;5.95;3.53;;;28.30;91.20;;;;;;5044701;28;20025;-54
2022/10/23 07:26:23;;;;;;;5.03;2.92;;;28.20;91.30;;;;;;5044028;28;20053;-54
2022/10/23 07:28:53;;;;;;;8.02;3.40;;;28.20;91.30;;;;;;5044629;28;20025;-60
2022/10/23 07:31:26;;;;;;;6.50;3.33;;;28.20;91.40;;;;;;5032719;28;20088;-52
2022/10/23 07:33:53;;;;;;;4.10;3.55;;;28.20;91.30;;;;;;5021193;28;20045;-54
2022/10/23 07:36:19;;;;;;;6.45;3.40;;;28.20;91.40;;;;;;5024836;28;20044;-57
2022/10/23 07:38:46;;;;;;;6.00;3.00;;;28.20;91.20;;;;;;5031216;28;20029;-54
2022/10/23 07:41:13;;;;;;;4.22;2.80;;;28.10;91.20;;;;;;5036905;28;20018;-54
2022/10/23 07:43:39;;;;;;;5.90;3.30;;;28.20;91.20;;;;;;5041540;28;20102;-56
2022/10/23 07:46:08;;;;;;;4.80;2.97;;;28.10;91.20;;;;;;5044222;28;20029;-54
2022/10/23 07:48:36;;;;;;;4.88;2.92;;;28.10;91.30;;;;;;5044104;28;20041;-54
2022/10/23 07:51:09;;;;;;;3.70;2.60;;;28.10;91.10;;;;;;5044081;28;20029;-55
2022/10/23 07:53:36;;;;;;;5.00;2.72;;;28.00;91.10;;;;;;5043912;28;20022;-54
2022/10/23 07:56:14;;;;;;;5.57;2.70;;;28.00;91.10;;;;;;5037063;28;20037;-57
2022/10/23 07:58:40;;;;;;;3.00;2.35;;;28.00;91.10;;;;;;5024364;28;20033;-55
2022/10/23 08:01:18;;;;;;;4.03;2.53;;;27.90;91.00;;;;;;5024074;28;20040;-53
2022/10/23 08:03:45;;;;;;;4.43;2.25;;;27.90;91.00;;;;;;5024410;28;20021;-53
2022/10/23 08:06:11;;;;;;;5.53;2.60;;;27.90;91.10;;;;;;5024167;28;20197;-57
2022/10/23 08:08:38;;;;;;;4.80;2.60;;;27.90;91.20;;;;;;5024101;28;20018;-60
2022/10/23 08:11:04;;;;;;;8.57;2.75;;;27.90;91.30;;;;;;5023968;28;20033;-60
2022/10/23 08:13:31;;;;;;;7.45;2.60;;;27.90;91.30;;;;;;5024217;28;20037;-62
2022/10/23 08:15:58;;;;;;;6.18;2.55;;;27.90;91.30;;;;;;5024112;28;20026;-62
2022/10/23 08:18:24;;;;;;;3.78;2.83;;;27.90;91.40;;;;;;5024073;28;20034;-62
2022/10/23 08:20:51;;;;;;;6.97;2.63;;;27.80;91.30;;;;;;5024000;28;20029;-62
2022/10/23 08:23:19;;;;;;;6.78;2.38;;;27.80;91.20;;;;;;5023918;28;20049;-56
2022/10/23 08:25:46;;;;;;;11.98;2.78;;;27.80;91.50;;;;;;5023865;28;20040;-54
2022/10/23 08:28:14;;;;;;;5.50;2.60;;;27.80;91.60;;;;;;5023876;28;20408;-58
2022/10/23 08:30:41;;;;;;;4.07;2.50;;;27.80;91.60;;;;;;5024037;28;20149;-55
2022/10/23 08:33:07;;;;;;;5.15;2.50;;;27.80;91.60;;;;;;5024123;28;20302;-56
2022/10/23 08:35:38;;;;;;;6.85;2.90;;;27.80;91.60;;;;;;5023732;28;20056;-55
2022/10/23 08:38:05;;;;;;;4.57;2.80;;;27.80;91.50;;;;;;5023590;28;20033;-54
2022/10/23 08:40:34;;;;;;;4.28;2.50;;;27.80;91.80;;;;;;5024453;28;20053;-54
2022/10/23 08:43:17;;;;;;;8.02;2.70;;;27.80;91.50;;;;;;5043576;28;20223;-55
2022/10/23 08:46:00;;;;;;;5.15;2.78;;;27.80;91.50;;;;;;5043629;28;20092;-57
2022/10/23 08:48:47;;;;;;;3.58;2.67;;;27.70;91.40;;;;;;5043481;28;20037;-56
2022/10/23 08:51:21;;;;;;;7.07;2.97;;;27.70;91.30;;;;;;5043399;28;20018;-61
2022/10/23 08:54:05;;;;;;;6.07;2.65;;;27.70;91.30;;;;;;5043583;28;20033;-56
2022/10/23 08:56:38;;;;;;;6.47;2.75;;;27.70;91.30;;;;;;5043529;28;20025;-55
2022/10/23 08:59:25;;;;;;;4.32;2.60;;;27.70;91.10;;;;;;5043534;28;20045;-54
2022/10/23 09:02:16;;;;;;;7.35;2.70;;;27.70;91.10;;;;;;5043282;28;20265;-55
2022/10/23 09:04:46;;;;;;;3.80;2.72;;;27.70;91.00;;;;;;5043727;28;20048;-56
2022/10/23 09:08:02;;;;;;;4.03;2.40;;;27.70;91.00;;;;;;5043256;28;20021;-61
2022/10/23 09:10:59;;;;;;;2.78;2.42;;;27.70;91.00;;;;;;4997288;28;20045;-55
2022/10/23 09:13:54;;;;;;;4.38;2.53;;;27.70;91.10;;;;;;5037440;28;20053;-55
2022/10/23 09:16:45;;;;;;;7.35;2.55;;;27.70;91.10;;;;;;5044880;28;20021;-55
2022/10/23 09:19:16;;;;;;;3.90;2.28;;;27.60;91.10;;;;;;5047229;28;20034;-59
2022/10/23 09:21:51;;;;;;;5.82;2.10;;;27.60;91.10;;;;;;5046749;28;20206;-54
2022/10/23 09:24:20;;;;;;;2.90;2.00;;;27.60;91.10;;;;;;5046660;28;20038;-53
2022/10/23 09:26:50;;;;;;;2.70;1.80;;;27.60;91.10;;;;;;5046331;28;20111;-60
2022/10/23 09:29:35;;;;;;;2.53;1.60;;;27.60;91.10;;;;;;5047321;28;20029;-60
2022/10/23 09:32:04;;;;;;;7.60;1.77;;;27.60;91.10;;;;;;5046505;28;20313;-55
2022/10/23 09:34:33;;;;;;;3.15;1.90;;;27.60;91.10;;;;;;5047089;28;20052;-60
2022/10/23 09:37:21;;;;;;;3.67;1.40;;;27.60;91.10;;;;;;5046293;28;20026;-60
2022/10/23 09:39:48;;;;;;;2.78;1.90;;;27.60;91.10;;;;;;5046343;28;20230;-62
2022/10/23 09:42:25;;;;;;;2.75;1.58;;;27.60;91.20;;;;;;5046283;28;20080;-55
2022/10/23 09:44:54;;;;;;;9.98;2.00;;;27.60;91.20;;;;;;5046255;28;20029;-54
2022/10/23 09:47:23;;;;;;;1.90;1.42;;;27.60;91.20;;;;;;5045977;28;20025;-56
2022/10/23 09:49:55;;;;;;;4.55;1.60;;;27.60;91.10;;;;;;5046213;28;20030;-58
2022/10/23 09:52:34;;;;;;;2.58;1.58;;;27.60;91.10;;;;;;5046226;28;20217;-53
2022/10/23 09:55:17;;;;;;;2.40;1.80;;;27.50;91.10;;;;;;5046048;28;20084;-59
2022/10/23 09:57:45;;;;;;;2.53;1.80;;;27.50;91.10;;;;;;5046134;28;20049;-54
2022/10/23 10:00:17;;;;;;;6.75;1.50;;;27.50;91.00;;;;;;5045913;28;20026;-58
2022/10/23 10:02:59;;;;;;;2.17;1.80;;;27.50;91.00;;;;;;5046021;28;20036;-54
2022/10/23 10:05:27;;;;;;;4.68;1.80;;;27.50;91.00;;;;;;5045837;28;20321;-53
2022/10/23 10:08:05;;;;;;;2.97;1.60;;;27.50;91.30;;;;;;5045939;28;20096;-55
2022/10/23 10:10:38;;;;;;;1.75;1.63;;;27.50;91.20;;;;;;5045768;28;20037;-56
2022/10/23 10:13:22;;;;;;;1.95;1.77;;;27.50;91.10;;;;;;5045845;28;20253;-54
2022/10/23 10:15:54;;;;;;;2.60;1.80;;;27.40;91.10;;;;;;5045591;28;20057;-54
2022/10/23 10:18:25;;;;;;;;;;;27.40;91.20;;;;;;5046324;28;20041;-53
2022/10/23 10:21:04;;;;;;;2.50;1.70;;;27.40;91.20;;;;;;5045695;28;19905;-53
2022/10/23 10:23:51;;;;;;;2.78;1.70;;;27.40;91.10;;;;;;5045874;28;20029;-54
2022/10/23 10:26:49;;;;;;;1.60;1.40;;;27.40;91.20;;;;;;5045150;28;20025;-53
2022/10/23 10:29:34;;;;;;;2.17;1.60;;;27.40;91.30;;;;;;5045272;28;20038;-54
2022/10/23 10:32:33;;;;;;;2.97;1.80;;;27.30;91.40;;;;;;5046619;28;20333;-56
2022/10/23 10:35:30;;;;;;;2.15;1.85;;;27.30;91.60;;;;;;5045271;28;20372;-54
2022/10/23 10:38:12;;;;;;;4.95;1.80;;;27.30;91.70;;;;;;5045267;28;20084;-58
2022/10/23 10:40:43;;;;;;;3.75;2.15;;;27.30;91.70;;;;;;5045180;28;20270;-55
2022/10/23 10:43:24;;;;;;;2.40;1.67;;;27.30;91.80;;;;;;5045131;28;20041;-55
2022/10/23 10:46:03;;;;;;;3.03;1.75;;;27.30;91.70;;;;;;5045113;28;20030;-55
2022/10/23 10:48:52;;;;;;;5.05;2.00;;;27.30;91.70;;;;;;5045086;28;20136;-54
2022/10/23 10:51:50;;;;;;;2.50;2.15;;;27.30;91.80;;;;;;5045019;28;20021;-55
2022/10/23 10:54:56;;;;;;;3.90;1.98;;;27.30;91.70;;;;;;5012474;28;20111;-58
2022/10/23 10:57:38;;;;;;;3.00;1.98;;;27.30;91.70;;;;;;5045055;28;20025;-61
2022/10/23 11:00:13;;;;;;;2.30;1.75;;;27.30;91.80;;;;;;5044888;28;20282;-60
2022/10/23 11:03:03;;;;;;;3.85;2.03;;;27.30;91.70;;;;;;5044898;28;20314;-55
2022/10/23 11:05:40;;;;;;;6.88;2.00;;;27.30;91.70;;;;;;5044604;28;20056;-55
2022/10/23 11:08:23;;;;;;;3.10;1.80;;;27.30;91.70;;;;;;5044746;28;20049;-59
2022/10/23 11:11:19;;;;;;;9.68;2.05;;;27.30;91.70;;;;;;5044894;28;20091;-54
2022/10/23 11:13:45;;;;;;;3.42;2.08;;;27.30;91.70;;;;;;5041573;28;20485;-53
2022/10/23 11:16:22;;;;;;;3.30;2.35;;;27.30;91.70;;;;;;5044891;28;20033;-60
2022/10/23 11:19:06;;;;;;;4.13;2.40;;;27.30;91.60;;;;;;5044993;28;20021;-57
2022/10/23 11:21:43;;;;;;;3.50;2.50;;;27.30;91.60;;;;;;5044918;28;20036;-56
2022/10/23 11:24:22;;;;;;;3.03;2.35;;;27.30;91.60;;;;;;5044508;28;20029;-57
2022/10/23 11:27:17;;;;;;;5.38;2.38;;;27.30;91.70;;;;;;5044400;28;20056;-55
2022/10/23 11:30:17;;;;;;;2.65;2.10;;;27.40;91.80;;;;;;5018989;28;20037;-55
2022/10/23 11:33:11;;;;;;;2.35;1.98;;;27.50;91.90;;;;;;5044162;28;20222;-54
2022/10/23 11:36:15;;;;;;;5.60;2.17;;;27.70;91.50;;;;;;5044514;28;20093;-54
2022/10/23 11:38:44;;;;;;;3.20;1.98;;;27.70;91.60;;;;;;5044007;28;20105;-53
2022/10/23 11:41:21;;;;;;;6.00;1.80;;;27.70;91.70;;;;;;5044439;28;20025;-54
2022/10/23 11:44:00;;;;;;;6.82;1.95;;;27.60;91.80;;;;;;5044116;28;20037;-59
2022/10/23 11:46:26;;;;;;;4.45;2.25;;;27.70;91.80;;;;;;5044340;28;20376;-56
2022/10/23 11:48:55;;;;;;;4.63;2.20;;;27.70;91.80;;;;;;5044308;28;20029;-53
2022/10/23 11:51:36;;;;;;;4.25;2.33;;;27.60;91.80;;;;;;5044419;28;20044;-52
2022/10/23 11:54:14;;;;;;;4.78;2.00;;;27.70;92.00;;;;;;5043867;28;20033;-53
2022/10/23 11:57:04;;;;;;;4.45;2.03;;;27.70;92.00;;;;;;5044474;28;20025;-59
2022/10/23 11:59:39;;;;;;;3.65;2.10;;;27.70;91.80;;;;;;5043870;28;20036;-56
2022/10/23 12:02:37;;;;;;;4.28;2.25;;;27.80;91.70;;;;;;5043765;28;20029;-56
2022/10/23 12:05:06;;;;;;;4.68;2.58;;;27.80;91.70;;;;;;5043981;28;20037;-55
2022/10/23 12:07:38;;;;;;;3.33;2.50;;;27.80;91.60;;;;;;5043677;28;20021;-56
2022/10/23 12:10:33;;;;;;;4.45;2.22;;;27.80;91.60;;;;;;5043759;28;20056;-56
2022/10/23 12:13:05;;;;;;;4.60;2.30;;;27.90;91.70;;;;;;5028697;28;20333;-59
2022/10/23 12:15:35;;;;;;;3.90;1.90;;;27.90;91.60;;;;;;5024150;28;20311;-55
2022/10/23 12:18:14;;;;;;;5.18;2.28;;;27.90;91.50;;;;;;5023848;28;20223;-54
2022/10/23 12:20:47;;;;;;;2.20;1.98;;;27.90;91.40;;;;;;5024246;28;20046;-56
2022/10/23 12:23:19;;;;;;;3.10;2.20;;;27.90;91.40;;;;;;5023873;28;20345;-55
2022/10/23 12:26:28;;;;;;;2.38;2.17;;;27.90;91.40;;;;;;5024428;28;20034;-57
2022/10/23 12:29:04;;;;;;;4.13;2.40;;;27.90;91.40;;;;;;4991113;28;20077;-57
2022/10/23 12:31:48;;;;;;;4.78;2.58;;;27.90;91.50;;;;;;5024256;28;20042;-60
2022/10/23 12:34:36;;;;;;;4.00;2.35;;;27.90;91.60;;;;;;5024081;28;20392;-62
2022/10/23 12:37:30;;;;;;;4.43;2.30;;;28.00;91.40;;;;;;5023654;28;20053;-54
2022/10/23 12:40:00;;;;;;;3.67;2.50;;;28.00;91.40;;;;;;5023803;28;20058;-57
2022/10/23 12:42:28;;;;;;;3.90;2.38;;;28.00;91.40;;;;;;5023794;28;20254;-57
2022/10/23 12:45:19;;;;;;;3.40;2.10;;;28.00;91.40;;;;;;5023846;28;20073;-57
2022/10/23 12:47:47;;;;;;;3.65;2.42;;;28.10;91.60;;;;;;5017212;28;20037;-53
2022/10/23 12:50:23;;;;;;;2.70;2.20;;;28.10;91.40;;;;;;5023803;28;20310;-57
2022/10/23 12:53:02;;;;;;;3.88;2.38;;;28.10;91.40;;;;;;5027432;28;20084;-53
2022/10/23 12:55:44;;;;;;;3.90;2.63;;;28.10;91.40;;;;;;5027523;28;20218;-59
2022/10/23 12:58:44;;;;;;;12.13;2.97;;;28.20;91.40;;;;;;5028049;28;20427;-61
2022/10/23 13:01:25;;;;;;;3.22;2.40;;;28.20;91.50;;;;;;5027758;28;20259;-56
2022/10/23 13:04:06;;;;;;;4.20;2.57;;;28.20;91.50;;;;;;5027229;28;20045;-56
2022/10/23 13:06:33;;;;;;;4.40;3.00;;;28.20;91.50;;;;;;5027481;28;20038;-57
2022/10/23 13:09:00;;;;;;;3.92;2.40;;;28.30;91.60;;;;;;5027592;28;20041;-59
2022/10/23 13:11:28;;;;;;;2.80;2.40;;;28.30;91.70;;;;;;5027655;28;20068;-55
2022/10/23 13:13:55;;;;;;;2.40;2.20;;;28.30;91.70;;;;;;5026973;28;20053;-56
2022/10/23 13:16:24;;;;;;;3.97;2.28;;;28.40;91.60;;;;;;5027493;28;20187;-57
2022/10/23 13:18:53;;;;;;;4.72;2.10;;;28.40;91.60;;;;;;5027006;28;20022;-54